Time;durP1;ratioP1;P1;durP2;ratioP2;P2;SDS_P1;SDS_P2;PMS_P1;PMS_P2;Temp;Humidity;BMP_temperature;BMP_pressure;BME280_temperature;BME280_humidity;BME280_pressure;Samples;Min_cycle;Max_cycle;Signal;HPM_P1;HPM_P2
2022/11/06 00:01:21;;;;;;;11.57;4.90;;;10.90;99.90;;;;;;5052819;28;20048;-69
2022/11/06 00:03:47;;;;;;;11.25;4.80;;;10.90;99.90;;;;;;5024189;28;20409;-69
2022/11/06 00:09:02;;;;;;;10.23;4.43;;;10.90;99.90;;;;;;5052113;28;20044;-69
2022/11/06 00:11:29;;;;;;;9.98;4.85;;;10.90;99.90;;;;;;5052580;28;20508;-69
2022/11/06 00:13:55;;;;;;;8.32;4.43;;;10.80;99.90;;;;;;5051871;28;20116;-68
2022/11/06 00:16:21;;;;;;;9.75;4.90;;;10.90;99.90;;;;;;5051705;28;20069;-69
2022/11/06 00:18:47;;;;;;;9.77;5.20;;;10.90;99.90;;;;;;5051727;28;20045;-69
2022/11/06 00:21:16;;;;;;;8.52;4.45;;;10.80;99.90;;;;;;5052830;28;20040;-69
2022/11/06 00:23:42;;;;;;;9.43;4.85;;;10.90;99.90;;;;;;5036466;28;20033;-69
2022/11/06 00:26:13;;;;;;;8.55;4.75;;;10.90;99.90;;;;;;5036933;28;20363;-69
2022/11/06 00:28:39;;;;;;;9.90;4.60;;;10.90;99.90;;;;;;5035900;28;20044;-69
2022/11/06 00:31:08;;;;;;;8.00;4.63;;;10.80;99.90;;;;;;5052939;28;20531;-69
2022/11/06 00:33:34;;;;;;;10.05;4.72;;;10.80;99.90;;;;;;5053050;28;20069;-69
2022/11/06 00:36:03;;;;;;;9.55;4.40;;;10.80;99.90;;;;;;5052567;28;20437;-70
2022/11/06 00:38:28;;;;;;;15.35;5.40;;;10.80;99.90;;;;;;5051712;28;20043;-69
2022/11/06 00:40:54;;;;;;;9.27;5.40;;;10.80;99.90;;;;;;5053149;28;20029;-69
2022/11/06 00:43:19;;;;;;;11.55;5.75;;;10.70;99.90;;;;;;5051984;28;20033;-70
2022/11/06 00:45:45;;;;;;;12.68;5.20;;;10.70;99.90;;;;;;5047455;28;20087;-70
2022/11/06 00:48:10;;;;;;;9.65;4.55;;;10.60;99.90;;;;;;5051828;28;20226;-69
2022/11/06 00:50:36;;;;;;;10.20;4.97;;;10.60;99.90;;;;;;5064757;28;20037;-70
2022/11/06 00:53:01;;;;;;;8.45;5.07;;;10.60;99.90;;;;;;5051713;28;20048;-70
2022/11/06 00:55:27;;;;;;;11.45;4.97;;;10.60;99.90;;;;;;5052623;28;20044;-69
2022/11/06 00:57:53;;;;;;;11.05;5.45;;;10.60;99.90;;;;;;5052066;28;20036;-69
2022/11/06 01:00:19;;;;;;;10.07;5.20;;;10.50;99.90;;;;;;5035750;28;20040;-69
2022/11/06 01:02:46;;;;;;;13.73;5.70;;;10.50;99.90;;;;;;5068880;28;20118;-69
2022/11/06 01:05:12;;;;;;;10.30;5.30;;;10.50;99.90;;;;;;5069195;28;20045;-69
2022/11/06 01:07:38;;;;;;;10.73;5.38;;;10.50;99.90;;;;;;5052358;28;20052;-69
2022/11/06 01:10:05;;;;;;;10.98;5.50;;;10.50;99.90;;;;;;5068264;28;20388;-69
2022/11/06 01:12:31;;;;;;;11.98;5.13;;;10.50;99.90;;;;;;5051512;28;20044;-69
2022/11/06 01:14:57;;;;;;;11.32;5.68;;;10.50;99.90;;;;;;5052393;28;20033;-69
2022/11/06 01:17:23;;;;;;;9.75;5.15;;;10.40;99.90;;;;;;5069228;28;20366;-69
2022/11/06 01:19:48;;;;;;;10.18;4.90;;;10.50;99.90;;;;;;5051116;28;20048;-70
2022/11/06 01:22:14;;;;;;;10.48;5.40;;;10.50;99.90;;;;;;5035497;28;20037;-69
2022/11/06 01:24:40;;;;;;;8.93;4.93;;;10.40;99.90;;;;;;5052176;28;20044;-70
2022/11/06 01:27:05;;;;;;;11.45;5.20;;;10.40;99.90;;;;;;5035783;28;20052;-69
2022/11/06 01:29:31;;;;;;;9.95;5.45;;;10.40;99.90;;;;;;5034928;28;20068;-69
2022/11/06 01:31:57;;;;;;;10.02;5.38;;;10.40;99.90;;;;;;5051834;28;20072;-69
2022/11/06 01:34:22;;;;;;;12.25;6.22;;;10.40;99.90;;;;;;5052050;28;20044;-69
2022/11/06 01:36:48;;;;;;;10.02;5.93;;;10.40;99.90;;;;;;5051213;28;20094;-70
2022/11/06 01:39:15;;;;;;;11.88;5.63;;;10.40;99.90;;;;;;5067976;28;20476;-69
2022/11/06 01:41:46;;;;;;;10.25;5.75;;;10.40;99.90;;;;;;5068608;28;20124;-69
2022/11/06 01:44:39;;;;;;;11.43;5.85;;;10.40;99.90;;;;;;5068732;28;20045;-69
2022/11/06 01:47:22;;;;;;;12.48;5.97;;;10.30;99.90;;;;;;5068881;28;20052;-69
2022/11/06 01:49:51;;;;;;;13.80;5.68;;;10.30;99.90;;;;;;5066990;28;20099;-69
2022/11/06 01:52:18;;;;;;;10.73;6.22;;;10.30;99.90;;;;;;5054472;28;20041;-70
2022/11/06 01:54:47;;;;;;;11.88;5.60;;;10.30;99.90;;;;;;5037681;28;20034;-69
2022/11/06 01:57:13;;;;;;;12.65;6.28;;;10.30;99.90;;;;;;5035888;28;20033;-69
2022/11/06 01:59:42;;;;;;;13.55;6.35;;;10.30;99.90;;;;;;5022430;28;20084;-69
2022/11/06 02:02:07;;;;;;;11.68;5.80;;;10.30;99.90;;;;;;5047476;28;20084;-69
2022/11/06 02:04:40;;;;;;;10.77;6.13;;;10.30;99.90;;;;;;5047730;28;20096;-70
2022/11/06 02:07:06;;;;;;;12.63;5.75;;;10.30;99.90;;;;;;5063402;28;20055;-70
2022/11/06 02:09:33;;;;;;;14.45;6.13;;;10.30;99.90;;;;;;5050480;28;20044;-69
2022/11/06 02:12:28;;;;;;;13.00;5.43;;;10.30;99.90;;;;;;5067940;28;20276;-69
2022/11/06 02:15:05;;;;;;;10.68;5.18;;;10.30;99.90;;;;;;5067894;28;20620;-69
2022/11/06 02:17:47;;;;;;;13.18;6.47;;;10.30;99.90;;;;;;5035109;28;20040;-70
2022/11/06 02:20:37;;;;;;;10.75;6.07;;;10.30;99.90;;;;;;5030746;28;20052;-70
2022/11/06 02:23:46;;;;;;;10.38;5.97;;;10.30;99.90;;;;;;5051470;28;20037;-70
2022/11/06 02:26:49;;;;;;;11.50;6.20;;;10.20;99.90;;;;;;5028488;28;20056;-69
2022/11/06 02:29:44;;;;;;;11.88;6.55;;;10.20;99.90;;;;;;5050778;28;20041;-69
2022/11/06 02:32:15;;;;;;;10.15;5.72;;;10.20;99.90;;;;;;5048159;28;20057;-69
2022/11/06 02:34:43;;;;;;;11.43;6.20;;;10.20;99.90;;;;;;5050519;28;20043;-69
2022/11/06 02:37:16;;;;;;;11.13;6.50;;;10.20;99.90;;;;;;5050328;28;20041;-69
2022/11/06 02:39:45;;;;;;;11.70;6.20;;;10.20;99.90;;;;;;5050888;28;20493;-69
2022/11/06 02:42:13;;;;;;;9.77;6.07;;;10.10;99.90;;;;;;5051582;28;20449;-69
2022/11/06 02:44:40;;;;;;;10.43;5.60;;;10.20;99.90;;;;;;5050732;28;20044;-69
2022/11/06 02:47:11;;;;;;;13.98;6.45;;;10.20;99.90;;;;;;5051501;28;20045;-69
2022/11/06 02:49:39;;;;;;;12.37;6.27;;;10.20;99.90;;;;;;5067582;28;20037;-69
2022/11/06 02:52:28;;;;;;;12.75;6.88;;;10.10;99.90;;;;;;5051092;28;20078;-69
2022/11/06 02:55:02;;;;;;;11.60;5.38;;;10.10;99.90;;;;;;5034500;28;20075;-69
2022/11/06 02:57:35;;;;;;;11.98;6.20;;;10.10;99.90;;;;;;5050196;28;20489;-69
2022/11/06 03:00:03;;;;;;;;;;;10.20;99.90;;;;;;5049680;28;20094;-69
2022/11/06 03:02:53;;;;;;;11.63;5.78;;;10.10;99.90;;;;;;5053350;28;20027;-69
2022/11/06 03:05:25;;;;;;;11.10;5.80;;;10.10;99.90;;;;;;5070717;28;20508;-69
2022/11/06 03:07:59;;;;;;;10.27;6.05;;;10.10;99.90;;;;;;5070471;28;20080;-69
2022/11/06 03:10:31;;;;;;;10.82;5.20;;;10.10;99.90;;;;;;5054616;28;20060;-69
2022/11/06 03:13:17;;;;;;;9.77;5.47;;;10.10;99.90;;;;;;5053659;28;20045;-69
2022/11/06 03:15:56;;;;;;;13.02;5.25;;;10.10;99.90;;;;;;5054597;28;20041;-69
2022/11/06 03:18:51;;;;;;;11.50;6.18;;;10.10;99.90;;;;;;5053757;28;20067;-69
2022/11/06 03:21:34;;;;;;;12.00;5.95;;;10.10;99.90;;;;;;5052511;28;20049;-69
2022/11/06 03:24:35;;;;;;;9.40;5.72;;;10.10;99.90;;;;;;5053728;28;20072;-69
2022/11/06 03:27:08;;;;;;;13.02;6.05;;;10.00;99.90;;;;;;5052401;28;20282;-69
2022/11/06 03:29:41;;;;;;;12.93;5.80;;;10.00;99.90;;;;;;5051331;28;20135;-69
2022/11/06 03:32:22;;;;;;;11.43;5.82;;;10.00;99.90;;;;;;5034275;28;20046;-69
2022/11/06 03:35:00;;;;;;;11.30;6.00;;;10.10;99.90;;;;;;5049538;28;20032;-69
2022/11/06 03:37:32;;;;;;;11.23;5.55;;;10.00;99.90;;;;;;5053183;28;20523;-69
2022/11/06 03:40:03;;;;;;;11.98;5.85;;;10.00;99.90;;;;;;5071095;28;20358;-69
2022/11/06 03:42:29;;;;;;;10.45;5.57;;;10.00;99.90;;;;;;5054300;28;20400;-69
2022/11/06 03:45:04;;;;;;;9.05;5.78;;;10.00;99.90;;;;;;5069944;28;20041;-69
2022/11/06 03:47:39;;;;;;;10.65;5.85;;;10.00;99.90;;;;;;5037194;28;20403;-69
2022/11/06 03:50:21;;;;;;;11.93;5.65;;;10.00;99.90;;;;;;5053858;28;20501;-69
2022/11/06 03:52:55;;;;;;;11.35;5.15;;;10.00;99.90;;;;;;5053907;28;20045;-69
2022/11/06 03:55:26;;;;;;;8.80;5.03;;;10.00;99.90;;;;;;5033967;28;20037;-69
2022/11/06 03:57:55;;;;;;;12.25;5.57;;;10.00;99.90;;;;;;5039247;28;20072;-69
2022/11/06 04:00:20;;;;;;;12.00;5.50;;;10.00;99.90;;;;;;5053213;28;20483;-69
2022/11/06 04:03:05;;;;;;;10.23;4.97;;;10.00;99.90;;;;;;5070105;28;20069;-69
2022/11/06 04:05:53;;;;;;;11.40;5.90;;;10.00;99.90;;;;;;5037029;28;20048;-69
2022/11/06 04:13:59;;;;;;;10.07;5.60;;;10.00;99.90;;;;;;5052698;28;20037;-69
2022/11/06 04:16:30;;;;;;;9.20;4.90;;;10.00;99.90;;;;;;5053431;28;20077;-69
2022/11/06 04:18:56;;;;;;;8.95;4.97;;;10.00;99.90;;;;;;5052402;28;20063;-69
2022/11/06 04:21:34;;;;;;;9.07;4.63;;;10.00;99.90;;;;;;5053305;28;20045;-69
2022/11/06 04:27:22;;;;;;;11.18;5.00;;;10.00;99.90;;;;;;5068679;28;20423;-69
2022/11/06 04:29:59;;;;;;;8.13;3.85;;;9.90;99.90;;;;;;5053121;28;20041;-69
2022/11/06 04:32:50;;;;;;;7.85;4.55;;;10.00;99.90;;;;;;5053091;28;20049;-69
2022/11/06 04:35:36;;;;;;;12.05;5.28;;;10.00;99.90;;;;;;5052856;28;20047;-69
2022/11/06 04:38:12;;;;;;;11.38;5.55;;;10.00;99.90;;;;;;5052257;28;20040;-69
2022/11/06 04:41:18;;;;;;;10.75;5.40;;;10.00;99.90;;;;;;5069957;28;20033;-69
2022/11/06 04:43:56;;;;;;;8.60;4.95;;;10.00;99.90;;;;;;5068731;28;20041;-68
2022/11/06 04:46:29;;;;;;;9.85;4.53;;;10.00;99.90;;;;;;5052115;28;20052;-69
2022/11/06 04:48:56;;;;;;;11.32;5.00;;;10.00;99.90;;;;;;5049610;28;20111;-69
2022/11/06 04:51:28;;;;;;;9.20;4.50;;;10.00;99.90;;;;;;5016299;28;20482;-69
2022/11/06 04:53:55;;;;;;;11.60;4.45;;;10.00;99.90;;;;;;5044346;28;20040;-69
2022/11/06 04:56:30;;;;;;;9.27;4.75;;;10.00;99.90;;;;;;5067554;28;20033;-68
2022/11/06 04:58:55;;;;;;;11.02;4.30;;;10.00;99.90;;;;;;5048475;28;20039;-68
2022/11/06 05:01:21;;;;;;;9.88;4.80;;;10.00;99.90;;;;;;5034538;28;20464;-69
2022/11/06 05:03:47;;;;;;;9.30;4.30;;;10.00;99.90;;;;;;5050104;28;20048;-69
2022/11/06 05:06:12;;;;;;;7.75;4.35;;;10.10;99.90;;;;;;5048294;28;20394;-69
2022/11/06 05:08:38;;;;;;;10.80;4.65;;;10.10;99.90;;;;;;5068950;28;20119;-69
2022/11/06 05:11:04;;;;;;;10.35;4.50;;;10.10;99.90;;;;;;5052322;28;20044;-69
2022/11/06 05:13:30;;;;;;;9.25;4.57;;;10.10;99.90;;;;;;5051396;28;20492;-69
2022/11/06 05:15:57;;;;;;;9.90;4.45;;;10.00;99.90;;;;;;5036021;28;20481;-69
2022/11/06 05:18:24;;;;;;;11.10;4.30;;;10.00;99.90;;;;;;5067220;28;20087;-69
2022/11/06 05:22:56;;;;;;;11.13;4.25;;;10.00;99.90;;;;;;5051721;28;20047;-69
2022/11/06 05:23:37;;;;;;;8.13;3.80;;;10.00;99.90;;;;;;5051278;28;20083;-69
2022/11/06 05:26:03;;;;;;;10.60;4.65;;;10.00;99.90;;;;;;5051433;28;20407;-69
2022/11/06 05:28:29;;;;;;;8.68;4.28;;;10.00;99.90;;;;;;5067017;28;20041;-69
2022/11/06 05:30:55;;;;;;;11.02;4.13;;;10.00;99.90;;;;;;5051595;28;20127;-69
2022/11/06 05:33:20;;;;;;;10.18;4.10;;;10.00;99.90;;;;;;5051048;28;20041;-69
2022/11/06 05:35:46;;;;;;;8.82;4.38;;;9.90;99.90;;;;;;5052231;28;20037;-69
2022/11/06 05:38:11;;;;;;;9.95;4.47;;;10.00;99.90;;;;;;5050870;28;20045;-69
2022/11/06 05:40:37;;;;;;;12.10;4.40;;;10.00;99.90;;;;;;5052265;28;20080;-69
2022/11/06 05:43:02;;;;;;;9.70;4.22;;;10.00;99.90;;;;;;5034180;28;20477;-69
2022/11/06 05:45:28;;;;;;;10.85;4.50;;;10.00;99.90;;;;;;5051278;28;20037;-69
2022/11/06 05:47:53;;;;;;;10.20;4.18;;;10.00;99.90;;;;;;5050563;28;20033;-69
2022/11/06 05:50:19;;;;;;;8.95;3.95;;;10.00;99.90;;;;;;5067837;28;20501;-69
2022/11/06 05:52:45;;;;;;;11.25;5.60;;;10.10;99.90;;;;;;5035191;28;20049;-69
2022/11/06 05:55:10;;;;;;;9.52;4.22;;;10.10;99.90;;;;;;5034974;28;20076;-69
2022/11/06 05:57:36;;;;;;;7.65;3.63;;;10.00;99.90;;;;;;5049549;28;20033;-69
2022/11/06 06:00:03;;;;;;;7.78;3.60;;;10.10;99.90;;;;;;5067236;28;20040;-69
2022/11/06 06:02:28;;;;;;;8.30;3.42;;;10.10;99.90;;;;;;5051154;28;20472;-70
2022/11/06 06:04:54;;;;;;;7.95;3.60;;;10.00;99.90;;;;;;5068222;28;20052;-69
2022/11/06 06:07:20;;;;;;;9.60;3.63;;;10.00;99.90;;;;;;5050786;28;20037;-69
2022/11/06 06:09:45;;;;;;;6.97;3.10;;;10.10;99.90;;;;;;5068507;28;20045;-69
2022/11/06 06:12:12;;;;;;;9.35;3.33;;;10.10;99.90;;;;;;5051463;28;20489;-69
2022/11/06 06:14:38;;;;;;;11.48;3.65;;;10.10;99.90;;;;;;5051775;28;20044;-69
2022/11/06 06:17:04;;;;;;;12.23;3.78;;;10.00;99.90;;;;;;5051690;28;20037;-69
2022/11/06 06:19:29;;;;;;;10.20;3.53;;;10.10;99.90;;;;;;5050636;28;20083;-69
2022/11/06 06:21:55;;;;;;;9.13;3.25;;;10.00;99.90;;;;;;5034584;28;20405;-69
2022/11/06 06:24:20;;;;;;;8.80;3.22;;;10.10;99.90;;;;;;5067038;28;20051;-69
2022/11/06 06:26:46;;;;;;;9.05;3.00;;;10.10;99.90;;;;;;5051540;28;20518;-69
2022/11/06 06:29:11;;;;;;;10.45;3.28;;;10.10;99.90;;;;;;5050846;28;20037;-69
2022/11/06 06:31:37;;;;;;;8.60;3.15;;;10.10;99.90;;;;;;5050377;28;20112;-69
2022/11/06 06:34:03;;;;;;;9.85;3.67;;;10.10;99.90;;;;;;5050619;28;20068;-69
2022/11/06 06:36:28;;;;;;;8.35;2.90;;;10.10;99.90;;;;;;5070855;28;20044;-69
2022/11/06 06:38:54;;;;;;;11.05;3.83;;;10.20;99.90;;;;;;5055538;28;20459;-69
2022/11/06 06:41:20;;;;;;;12.05;3.47;;;10.10;99.90;;;;;;5069295;28;20029;-69
2022/11/06 06:43:49;;;;;;;9.15;3.05;;;10.10;99.90;;;;;;5055197;28;20033;-69
2022/11/06 06:46:15;;;;;;;9.65;3.03;;;10.10;99.90;;;;;;5036827;28;20033;-69
2022/11/06 06:48:41;;;;;;;9.40;3.72;;;10.20;99.90;;;;;;5054203;28;20493;-69
2022/11/06 06:51:06;;;;;;;9.63;3.10;;;10.20;99.90;;;;;;5054378;28;20120;-69
2022/11/06 06:53:33;;;;;;;9.60;2.88;;;10.20;99.90;;;;;;5070724;28;20029;-69
2022/11/06 06:56:00;;;;;;;10.85;2.95;;;10.20;99.90;;;;;;5054081;28;20037;-69
2022/11/06 06:58:27;;;;;;;7.93;2.67;;;10.30;99.90;;;;;;5053427;28;20087;-69
2022/11/06 07:00:52;;;;;;;6.50;2.65;;;10.30;99.90;;;;;;5054754;28;20037;-69
2022/11/06 07:03:18;;;;;;;8.35;2.83;;;10.30;99.90;;;;;;5070074;28;20136;-69
2022/11/06 07:05:45;;;;;;;8.63;2.80;;;10.30;99.90;;;;;;5071254;28;20080;-69
2022/11/06 07:08:11;;;;;;;9.38;3.17;;;10.40;99.90;;;;;;5053992;28;20040;-69
2022/11/06 07:10:36;;;;;;;7.32;2.92;;;10.30;99.90;;;;;;5037206;28;20041;-69
2022/11/06 07:13:03;;;;;;;10.18;3.40;;;10.30;99.90;;;;;;5055778;28;20045;-69
2022/11/06 07:15:30;;;;;;;11.27;3.10;;;10.40;99.90;;;;;;5038091;28;20049;-69
2022/11/06 07:18:01;;;;;;;10.40;3.33;;;10.40;99.90;;;;;;5053800;28;20128;-69
2022/11/06 07:20:26;;;;;;;8.90;2.90;;;10.40;99.90;;;;;;5053432;28;20082;-69
2022/11/06 07:22:52;;;;;;;10.98;2.70;;;10.40;99.90;;;;;;5053558;28;20045;-69
2022/11/06 07:25:17;;;;;;;8.30;2.72;;;10.40;99.90;;;;;;5046484;28;20040;-69
2022/11/06 07:27:43;;;;;;;12.23;2.95;;;10.40;99.90;;;;;;5040677;28;20037;-69
2022/11/06 07:30:09;;;;;;;8.00;2.75;;;10.40;99.90;;;;;;5028706;28;20045;-69
2022/11/06 07:32:34;;;;;;;8.82;3.00;;;10.50;99.90;;;;;;5033896;28;20533;-69
2022/11/06 07:35:00;;;;;;;9.23;2.92;;;10.50;99.90;;;;;;5050479;28;20077;-69
2022/11/06 07:37:26;;;;;;;10.63;2.92;;;10.50;99.90;;;;;;5060114;28;20481;-69
2022/11/06 07:39:51;;;;;;;9.23;2.50;;;10.50;99.90;;;;;;5070688;28;20049;-69
2022/11/06 07:42:17;;;;;;;11.15;3.00;;;10.60;99.90;;;;;;5070104;28;20546;-69
2022/11/06 07:44:42;;;;;;;8.10;2.60;;;10.60;99.90;;;;;;5036143;28;20553;-69
2022/11/06 07:47:08;;;;;;;10.55;3.00;;;10.60;99.90;;;;;;5031269;28;20042;-69
2022/11/06 07:49:33;;;;;;;9.15;2.50;;;10.60;99.90;;;;;;5050950;28;20047;-69
2022/11/06 07:51:59;;;;;;;8.18;2.40;;;10.60;99.90;;;;;;5049328;28;20037;-69
2022/11/06 07:54:24;;;;;;;10.88;2.92;;;10.70;99.90;;;;;;5049197;28;20040;-69
2022/11/06 07:56:50;;;;;;;8.25;2.40;;;10.70;99.90;;;;;;5052178;28;20493;-69
2022/11/06 07:59:16;;;;;;;8.77;2.40;;;10.70;99.90;;;;;;5052897;28;20028;-69
2022/11/06 08:01:41;;;;;;;7.68;1.90;;;10.70;99.90;;;;;;5035459;28;20036;-69
2022/11/06 08:04:07;;;;;;;8.32;2.63;;;10.70;99.90;;;;;;5062643;28;20065;-69
2022/11/06 08:06:32;;;;;;;9.18;2.78;;;10.70;99.90;;;;;;5033323;28;20083;-69
2022/11/06 08:08:58;;;;;;;6.00;2.17;;;10.60;99.90;;;;;;5035855;28;20044;-69
2022/11/06 08:11:23;;;;;;;8.40;2.60;;;10.60;99.90;;;;;;5070114;28;20413;-69
2022/11/06 08:13:49;;;;;;;7.43;2.22;;;10.60;99.90;;;;;;5056532;28;20474;-69
2022/11/06 08:16:14;;;;;;;8.63;2.60;;;10.60;99.90;;;;;;5033063;28;20037;-69
2022/11/06 08:18:40;;;;;;;7.75;2.50;;;10.60;99.90;;;;;;5051111;28;20060;-69
2022/11/06 08:21:06;;;;;;;6.93;2.42;;;10.60;99.90;;;;;;5043284;28;20041;-69
2022/11/06 08:23:33;;;;;;;8.75;2.42;;;10.60;99.90;;;;;;5052943;28;20047;-69
2022/11/06 08:26:01;;;;;;;7.82;2.38;;;10.60;99.90;;;;;;5036074;28;20317;-69
2022/11/06 08:28:27;;;;;;;12.70;2.50;;;10.60;99.90;;;;;;5052041;28;20509;-69
2022/11/06 08:30:53;;;;;;;8.32;2.50;;;10.60;99.90;;;;;;5051131;28;20037;-69
2022/11/06 08:33:20;;;;;;;8.00;2.17;;;10.60;99.90;;;;;;5052969;28;20037;-69
2022/11/06 08:35:46;;;;;;;8.20;2.40;;;10.60;99.90;;;;;;5053178;28;20044;-69
2022/11/06 08:38:14;;;;;;;9.30;2.53;;;10.70;99.90;;;;;;5049121;28;20036;-69
2022/11/06 08:40:39;;;;;;;8.25;2.20;;;10.60;99.90;;;;;;5049699;28;20064;-69
2022/11/06 08:43:08;;;;;;;5.57;1.88;;;10.60;99.90;;;;;;5033082;28;20482;-69
2022/11/06 08:45:42;;;;;;;8.55;2.45;;;10.60;99.90;;;;;;5036246;28;20041;-69
2022/11/06 08:48:08;;;;;;;6.82;2.00;;;10.50;99.90;;;;;;5069043;28;20036;-69
2022/11/06 08:50:36;;;;;;;8.38;2.30;;;10.40;99.90;;;;;;5069430;28;20047;-69
2022/11/06 08:53:03;;;;;;;6.00;2.47;;;10.30;99.90;;;;;;5052671;28;20083;-69
2022/11/06 08:55:30;;;;;;;8.25;2.33;;;10.30;99.90;;;;;;5069469;28;20554;-71
2022/11/06 08:57:56;;;;;;;8.35;2.58;;;10.30;99.90;;;;;;5055761;28;20037;-73
2022/11/06 09:00:22;;;;;;;7.80;2.15;;;10.50;99.90;;;;;;5036095;28;20135;-69
2022/11/06 09:02:48;;;;;;;9.85;2.33;;;10.50;99.90;;;;;;5067950;28;20091;-77
2022/11/06 09:05:13;;;;;;;7.97;2.40;;;10.60;99.90;;;;;;5052707;28;20493;-77
2022/11/06 09:07:39;;;;;;;5.97;1.90;;;10.60;99.90;;;;;;5035826;28;20043;-69
2022/11/06 09:10:05;;;;;;;7.68;2.33;;;10.60;99.90;;;;;;5051649;28;20033;-69
2022/11/06 09:12:31;;;;;;;5.82;2.40;;;10.70;99.90;;;;;;5060407;28;20072;-70
2022/11/06 09:14:56;;;;;;;7.28;2.13;;;10.60;99.90;;;;;;5040568;28;20025;-70
2022/11/06 09:17:23;;;;;;;6.40;2.42;;;10.70;99.90;;;;;;5033869;28;20038;-70
2022/11/06 09:19:52;;;;;;;8.25;2.28;;;10.70;99.90;;;;;;5034948;28;20492;-70
2022/11/06 09:22:18;;;;;;;10.63;3.10;;;10.70;99.90;;;;;;5068453;28;20123;-70
2022/11/06 09:24:44;;;;;;;8.73;2.40;;;10.80;99.90;;;;;;5051050;28;20064;-70
2022/11/06 09:27:09;;;;;;;6.55;2.10;;;10.90;99.90;;;;;;5052083;28;20128;-70
2022/11/06 09:29:39;;;;;;;5.47;1.75;;;10.90;99.90;;;;;;5050601;28;20447;-70
2022/11/06 09:32:05;;;;;;;5.82;1.90;;;10.90;99.90;;;;;;5046438;28;20112;-69
2022/11/06 09:34:31;;;;;;;10.38;2.50;;;11.00;99.90;;;;;;5066362;28;20037;-70
2022/11/06 09:36:56;;;;;;;8.60;2.35;;;10.90;99.90;;;;;;5051286;28;20041;-70
2022/11/06 09:39:22;;;;;;;5.72;1.75;;;11.00;99.90;;;;;;5052126;28;20044;-69
2022/11/06 09:41:57;;;;;;;6.57;2.30;;;11.20;99.90;;;;;;5066165;28;20513;-69
2022/11/06 09:44:43;;;;;;;8.25;2.30;;;11.20;99.90;;;;;;5066972;28;20033;-70
2022/11/06 09:47:22;;;;;;;7.63;2.00;;;11.30;99.90;;;;;;5067847;28;20044;-69
2022/11/06 09:49:54;;;;;;;8.27;2.10;;;11.40;99.90;;;;;;5044645;28;20068;-69
2022/11/06 09:52:41;;;;;;;7.85;2.25;;;11.50;99.90;;;;;;5050389;28;20032;-69
2022/11/06 09:55:21;;;;;;;8.48;2.15;;;11.60;99.90;;;;;;5038324;28;20078;-70
2022/11/06 09:57:53;;;;;;;6.20;2.00;;;11.70;99.90;;;;;;5049221;28;20107;-70
2022/11/06 10:00:19;;;;;;;7.82;2.20;;;11.80;99.90;;;;;;5037316;28;20033;-70
2022/11/06 10:02:51;;;;;;;9.13;2.33;;;11.80;99.90;;;;;;5050031;28;20052;-70
2022/11/06 10:05:30;;;;;;;9.20;1.85;;;11.80;99.90;;;;;;5050103;28;20135;-70
2022/11/06 10:07:58;;;;;;;7.38;1.70;;;11.80;99.90;;;;;;5042602;28;20040;-70
2022/11/06 10:10:37;;;;;;;10.57;2.28;;;11.80;99.90;;;;;;5061670;28;20040;-70
2022/11/06 10:13:28;;;;;;;7.03;1.90;;;11.80;99.90;;;;;;5053199;28;20401;-70
2022/11/06 10:16:19;;;;;;;5.43;1.80;;;11.80;99.90;;;;;;5071376;28;20033;-70
2022/11/06 10:19:02;;;;;;;8.60;1.65;;;11.80;99.90;;;;;;5038453;28;20040;-70
2022/11/06 10:21:49;;;;;;;5.63;1.73;;;11.80;99.90;;;;;;5055034;28;20033;-70
2022/11/06 10:24:36;;;;;;;7.75;1.63;;;11.80;99.90;;;;;;5055855;28;20071;-70
2022/11/06 10:27:06;;;;;;;6.20;1.65;;;11.80;99.90;;;;;;5057381;28;20045;-70
2022/11/06 10:29:51;;;;;;;7.75;2.35;;;11.80;99.90;;;;;;5071261;28;20455;-70
2022/11/06 10:32:32;;;;;;;7.55;1.38;;;11.90;99.90;;;;;;5044001;28;20497;-70
2022/11/06 10:35:16;;;;;;;5.03;1.55;;;11.80;99.90;;;;;;5068464;28;20123;-70
2022/11/06 10:37:53;;;;;;;3.97;1.77;;;11.90;99.90;;;;;;5054466;28;20123;-70
2022/11/06 10:40:24;;;;;;;8.07;1.73;;;11.90;99.90;;;;;;5053330;28;20075;-70
2022/11/06 10:43:25;;;;;;;5.70;1.80;;;11.80;99.90;;;;;;5053667;28;20520;-70
2022/11/06 10:45:59;;;;;;;7.75;1.80;;;11.80;99.90;;;;;;5034231;28;20121;-70
2022/11/06 10:48:37;;;;;;;7.05;1.40;;;11.90;99.90;;;;;;5054319;28;20044;-70
2022/11/06 10:51:11;;;;;;;5.97;1.75;;;11.90;99.90;;;;;;5055343;28;20041;-70
2022/11/06 10:53:44;;;;;;;5.70;1.77;;;11.90;99.90;;;;;;5053734;28;20079;-70
2022/11/06 10:56:09;;;;;;;9.35;1.98;;;12.00;99.90;;;;;;5071255;28;20068;-70
2022/11/06 10:58:35;;;;;;;8.13;1.70;;;11.90;99.90;;;;;;5052837;28;20508;-70
2022/11/06 11:01:02;;;;;;;6.22;1.73;;;11.90;99.90;;;;;;5067233;28;20080;-70
2022/11/06 11:03:38;;;;;;;7.97;1.70;;;11.90;99.90;;;;;;5068651;28;20404;-70
2022/11/06 11:06:04;;;;;;;7.32;2.05;;;11.90;99.90;;;;;;5052778;28;20124;-70
2022/11/06 11:08:32;;;;;;;7.30;1.95;;;11.90;99.90;;;;;;5032482;28;20124;-71
2022/11/06 11:11:14;;;;;;;8.13;1.70;;;11.90;99.90;;;;;;5049729;28;20040;-70
2022/11/06 11:14:10;;;;;;;7.00;1.92;;;11.90;99.90;;;;;;5048783;28;20072;-70
2022/11/06 11:16:43;;;;;;;7.68;1.80;;;11.90;99.90;;;;;;5015691;28;20072;-70
2022/11/06 11:19:24;;;;;;;7.22;1.98;;;11.90;99.90;;;;;;5050278;28;20436;-70
2022/11/06 11:21:58;;;;;;;7.32;1.67;;;11.90;99.90;;;;;;5039780;28;20049;-70
2022/11/06 11:24:24;;;;;;;7.55;2.53;;;11.90;99.90;;;;;;5032987;28;20048;-70
2022/11/06 11:26:53;;;;;;;8.13;2.08;;;11.90;99.90;;;;;;5032783;28;20072;-71
2022/11/06 11:29:40;;;;;;;7.82;1.98;;;11.90;99.90;;;;;;5042406;28;20428;-70
2022/11/06 11:32:06;;;;;;;5.18;1.65;;;11.90;99.90;;;;;;5040982;28;20119;-70
2022/11/06 11:34:36;;;;;;;6.82;2.63;;;11.80;99.90;;;;;;5037421;28;20501;-70
2022/11/06 11:37:04;;;;;;;9.30;2.20;;;11.80;99.90;;;;;;5052542;28;20040;-70
2022/11/06 11:39:35;;;;;;;7.47;2.03;;;11.80;99.90;;;;;;5035129;28;20501;-70
2022/11/06 11:42:16;;;;;;;5.85;2.30;;;11.80;99.90;;;;;;5052101;28;20041;-71
2022/11/06 11:44:42;;;;;;;5.93;1.77;;;11.90;99.90;;;;;;5063731;28;20096;-70
2022/11/06 11:47:23;;;;;;;6.82;2.10;;;11.90;99.90;;;;;;5040221;28;20033;-71
2022/11/06 11:49:49;;;;;;;5.87;1.90;;;11.90;99.90;;;;;;5059055;28;20564;-70
2022/11/06 11:52:20;;;;;;;7.85;1.88;;;11.90;99.90;;;;;;5015230;28;20121;-70
2022/11/06 11:54:50;;;;;;;5.90;1.80;;;11.90;99.90;;;;;;5032347;28;20048;-70
2022/11/06 11:57:22;;;;;;;8.88;1.75;;;11.90;99.90;;;;;;5068857;28;20033;-71
2022/11/06 12:00:00;;;;;;;6.05;1.80;;;12.10;99.90;;;;;;5051277;28;20029;-71
2022/11/06 12:02:42;;;;;;;6.88;1.80;;;12.00;99.90;;;;;;5030585;28;1076725;-70
2022/11/06 12:05:12;;;;;;;7.60;1.92;;;12.00;99.90;;;;;;5069805;28;20400;-70
2022/11/06 12:07:42;;;;;;;8.00;1.90;;;12.10;99.90;;;;;;5064109;28;20124;-70
2022/11/06 12:10:39;;;;;;;7.25;2.28;;;12.10;99.90;;;;;;5029896;28;20416;-70
2022/11/06 12:13:25;;;;;;;6.35;2.22;;;12.20;99.90;;;;;;5046997;28;20037;-70
2022/11/06 12:16:04;;;;;;;5.75;1.88;;;12.20;99.90;;;;;;5035546;28;20097;-70
2022/11/06 12:18:42;;;;;;;9.10;2.25;;;12.20;99.90;;;;;;5039114;28;20116;-70
2022/11/06 12:21:11;;;;;;;5.97;2.85;;;12.30;99.90;;;;;;5041643;28;20037;-70
2022/11/06 12:23:42;;;;;;;4.28;1.45;;;12.40;99.90;;;;;;5037644;28;20045;-70
2022/11/06 12:26:18;;;;;;;9.30;1.57;;;12.40;99.90;;;;;;5054885;28;20405;-71
2022/11/06 12:28:49;;;;;;;5.20;1.48;;;12.40;99.90;;;;;;5064492;28;20427;-70
2022/11/06 12:31:42;;;;;;;6.18;1.58;;;12.40;99.90;;;;;;5052257;28;20041;-70
2022/11/06 12:34:19;;;;;;;6.68;1.48;;;12.50;99.90;;;;;;5051710;28;20037;-70
2022/11/06 12:37:16;;;;;;;4.97;1.55;;;12.60;99.90;;;;;;5052532;28;20167;-70
2022/11/06 12:39:46;;;;;;;4.18;1.75;;;12.70;99.90;;;;;;5047469;28;20040;-70
2022/11/06 12:42:13;;;;;;;4.60;1.40;;;12.70;99.90;;;;;;5042246;28;20814;-70
2022/11/06 12:44:39;;;;;;;7.70;1.50;;;12.70;99.90;;;;;;5066669;28;20515;-70
2022/11/06 12:47:11;;;;;;;4.32;1.60;;;12.80;99.90;;;;;;5052394;28;20032;-68
2022/11/06 12:50:01;;;;;;;7.47;1.70;;;12.80;99.90;;;;;;5046573;28;20397;-68
2022/11/06 12:52:56;;;;;;;5.10;1.20;;;12.70;99.90;;;;;;5037403;28;20049;-69
2022/11/06 12:55:37;;;;;;;6.57;1.60;;;12.80;99.90;;;;;;5068727;28;20520;-68
2022/11/06 12:58:27;;;;;;;6.13;1.52;;;12.70;99.90;;;;;;5050280;28;20044;-68
2022/11/06 13:01:14;;;;;;;5.03;1.88;;;12.70;99.90;;;;;;5042879;28;20042;-68
2022/11/06 13:03:49;;;;;;;7.90;1.73;;;12.60;99.90;;;;;;5068430;28;20103;-68
2022/11/06 13:06:55;;;;;;;6.10;1.73;;;12.60;99.90;;;;;;5050761;28;20044;-68
2022/11/06 13:09:33;;;;;;;6.82;1.85;;;12.50;99.90;;;;;;5015479;28;20045;-68
2022/11/06 13:12:31;;;;;;;7.25;1.77;;;12.50;99.90;;;;;;5051775;28;20041;-68
2022/11/06 13:15:19;;;;;;;6.10;1.75;;;12.50;99.90;;;;;;5050748;28;20032;-68
2022/11/06 13:18:00;;;;;;;5.35;1.52;;;12.50;99.90;;;;;;5045056;28;20044;-68